Time;durP1;ratioP1;P1;durP2;ratioP2;P2;SDS_P1;SDS_P2;PMS_P1;PMS_P2;Temp;Humidity;BMP_temperature;BMP_pressure;BME280_temperature;BME280_humidity;BME280_pressure;Samples;Min_cycle;Max_cycle;Signal;HPM_P1;HPM_P2
2021/01/16 00:01:04;;;;;;;44.70;21.15;;;-5.50;97.60;;;;;;5024872;28;20255;-63
2021/01/16 00:03:29;;;;;;;51.83;20.75;;;-5.50;97.50;;;;;;5012244;28;20239;-63
2021/01/16 00:05:56;;;;;;;49.57;20.27;;;-5.50;97.60;;;;;;5010294;28;20176;-63
2021/01/16 00:08:23;;;;;;;40.17;19.17;;;-5.50;97.50;;;;;;5010269;28;20637;-64
2021/01/16 00:10:52;;;;;;;49.60;20.55;;;-5.60;97.60;;;;;;5015462;28;20184;-64
2021/01/16 00:13:23;;;;;;;40.38;19.25;;;-5.60;97.50;;;;;;5011471;28;20211;-63
2021/01/16 00:15:49;;;;;;;42.97;19.88;;;-5.60;97.60;;;;;;5012765;28;20169;-63
2021/01/16 00:18:17;;;;;;;43.07;19.47;;;-5.60;97.60;;;;;;5014089;28;20246;-64
2021/01/16 00:20:46;;;;;;;54.38;21.83;;;-5.60;98.00;;;;;;5010729;28;20406;-64
2021/01/16 00:23:13;;;;;;;48.22;19.67;;;-5.60;98.10;;;;;;5009316;28;20218;-64
2021/01/16 00:25:39;;;;;;;40.63;19.17;;;-5.60;98.30;;;;;;5004038;28;20181;-63
2021/01/16 00:28:05;;;;;;;37.90;17.20;;;-5.50;98.40;;;;;;5012046;28;20181;-63
2021/01/16 00:30:33;;;;;;;40.88;18.85;;;-5.50;98.30;;;;;;5013978;28;20176;-63
2021/01/16 00:33:00;;;;;;;43.28;20.10;;;-5.50;98.20;;;;;;5006424;28;20239;-63
2021/01/16 00:35:31;;;;;;;44.50;20.55;;;-5.50;98.30;;;;;;5007364;28;20185;-63
2021/01/16 00:37:56;;;;;;;43.40;20.02;;;-5.50;98.40;;;;;;5010551;28;20188;-64
2021/01/16 00:40:26;;;;;;;47.40;20.37;;;-5.40;98.40;;;;;;5009562;28;20576;-63
2021/01/16 00:42:54;;;;;;;44.63;19.48;;;-5.40;98.50;;;;;;5010161;28;20204;-62
2021/01/16 00:45:20;;;;;;;42.75;18.50;;;-5.40;98.40;;;;;;5017079;28;20658;-63
2021/01/16 00:47:47;;;;;;;39.42;17.40;;;-5.40;98.40;;;;;;5013847;28;20195;-63
2021/01/16 00:50:15;;;;;;;41.25;17.13;;;-5.30;98.50;;;;;;5000288;28;20279;-64
2021/01/16 00:52:41;;;;;;;42.20;18.00;;;-5.30;98.60;;;;;;5010534;28;20247;-63
2021/01/16 00:55:08;;;;;;;39.70;17.43;;;-5.30;98.60;;;;;;5010247;28;20181;-64
2021/01/16 00:57:35;;;;;;;34.47;17.10;;;-5.20;98.60;;;;;;5012917;28;20193;-63
2021/01/16 01:00:01;;;;;;;34.00;16.05;;;-5.20;98.80;;;;;;5011138;28;20259;-63
2021/01/16 01:02:26;;;;;;;37.60;16.10;;;-5.10;99.00;;;;;;5009070;28;20762;-63
2021/01/16 01:04:55;;;;;;;42.30;18.87;;;-5.10;98.60;;;;;;5007082;28;20272;-64
2021/01/16 01:07:21;;;;;;;40.25;17.85;;;-5.10;98.60;;;;;;4994851;28;20217;-64
2021/01/16 01:09:46;;;;;;;37.97;17.47;;;-5.10;98.60;;;;;;5001985;28;20241;-64
2021/01/16 01:12:12;;;;;;;31.30;14.37;;;-5.10;98.50;;;;;;5000737;28;20593;-64
2021/01/16 01:14:39;;;;;;;29.05;14.27;;;-5.10;98.50;;;;;;5008690;28;20180;-63
2021/01/16 01:17:15;;;;;;;34.47;14.98;;;-5.10;98.60;;;;;;5012606;28;20196;-63
2021/01/16 01:19:41;;;;;;;29.02;13.75;;;-5.10;98.50;;;;;;5005500;28;20184;-62
2021/01/16 01:22:08;;;;;;;28.88;13.85;;;-5.00;98.40;;;;;;5006701;28;20197;-64
2021/01/16 01:24:34;;;;;;;34.70;15.45;;;-5.00;98.30;;;;;;5008662;28;20185;-64
2021/01/16 01:26:59;;;;;;;39.33;16.53;;;-5.00;97.70;;;;;;5006907;28;20196;-64
2021/01/16 01:29:25;;;;;;;33.73;15.30;;;-5.10;97.70;;;;;;5011534;28;20943;-65
2021/01/16 01:31:51;;;;;;;34.40;15.63;;;-5.10;97.70;;;;;;5001533;28;20205;-63
2021/01/16 01:34:16;;;;;;;35.60;15.43;;;-5.10;98.00;;;;;;5012480;28;20667;-64
2021/01/16 01:36:42;;;;;;;37.70;15.27;;;-5.10;98.00;;;;;;5008290;28;20230;-63
2021/01/16 01:39:08;;;;;;;38.40;16.37;;;-5.10;97.90;;;;;;5005262;28;20666;-64
2021/01/16 01:41:40;;;;;;;33.87;14.77;;;-5.10;98.10;;;;;;5009521;28;20216;-63
2021/01/16 01:44:07;;;;;;;33.05;14.90;;;-5.10;98.20;;;;;;5012648;28;20177;-63
2021/01/16 01:46:33;;;;;;;37.80;16.30;;;-5.00;98.30;;;;;;5023971;28;20247;-63
2021/01/16 01:48:59;;;;;;;35.67;15.48;;;-5.00;98.30;;;;;;5003565;28;20221;-62
2021/01/16 01:51:27;;;;;;;33.85;14.60;;;-5.00;98.50;;;;;;5004110;28;20200;-63
2021/01/16 01:53:55;;;;;;;36.80;15.40;;;-4.90;98.50;;;;;;5009404;28;20587;-63
2021/01/16 01:56:25;;;;;;;42.80;16.58;;;-4.90;98.20;;;;;;5011742;28;20180;-64
2021/01/16 01:58:52;;;;;;;35.60;17.08;;;-5.00;97.80;;;;;;5003816;28;20230;-63
2021/01/16 02:01:19;;;;;;;38.13;16.48;;;-5.00;97.90;;;;;;5016830;28;20205;-64
2021/01/16 02:03:48;;;;;;;40.53;15.60;;;-5.00;98.10;;;;;;5010576;28;20236;-63
2021/01/16 02:06:14;;;;;;;42.55;17.40;;;-5.00;98.10;;;;;;5005018;28;20276;-64
2021/01/16 02:08:40;;;;;;;32.58;16.35;;;-5.00;98.20;;;;;;5004736;28;20310;-64
2021/01/16 02:11:05;;;;;;;35.27;17.40;;;-5.00;98.00;;;;;;5007486;28;20619;-63
2021/01/16 02:13:31;;;;;;;34.90;17.10;;;-5.10;97.90;;;;;;5013984;28;20177;-64
2021/01/16 02:16:09;;;;;;;27.90;15.33;;;-5.10;98.50;;;;;;5020887;28;20185;-63
2021/01/16 02:18:46;;;;;;;34.72;16.25;;;-5.00;98.50;;;;;;5021754;28;20187;-63
2021/01/16 02:21:22;;;;;;;42.25;18.00;;;-5.00;98.50;;;;;;5018640;28;20188;-64
2021/01/16 02:24:12;;;;;;;33.80;14.80;;;-5.00;98.50;;;;;;5002555;28;20199;-63
2021/01/16 02:26:56;;;;;;;33.08;15.98;;;-5.00;98.50;;;;;;5014295;28;20186;-64
2021/01/16 02:29:23;;;;;;;34.10;14.77;;;-4.90;98.60;;;;;;5005361;28;20209;-64
2021/01/16 02:32:03;;;;;;;33.00;15.43;;;-4.90;98.70;;;;;;5006388;28;20209;-64
2021/01/16 02:34:32;;;;;;;36.50;15.50;;;-4.90;98.70;;;;;;5005129;28;20263;-64
2021/01/16 02:37:21;;;;;;;34.85;14.80;;;-4.90;98.80;;;;;;5011540;28;20180;-64
2021/01/16 02:39:56;;;;;;;37.03;17.83;;;-4.80;99.10;;;;;;5003915;28;20291;-64
2021/01/16 02:42:37;;;;;;;37.45;16.92;;;-4.80;99.20;;;;;;5010432;28;20223;-64
2021/01/16 02:45:10;;;;;;;33.33;15.00;;;-4.80;99.50;;;;;;5010380;28;20196;-64
2021/01/16 02:48:08;;;;;;;40.35;16.67;;;-4.80;99.20;;;;;;5008508;28;20204;-64
2021/01/16 02:50:41;;;;;;;35.95;15.88;;;-4.70;99.10;;;;;;4999549;28;20347;-63
2021/01/16 02:53:07;;;;;;;33.78;15.98;;;-4.70;99.00;;;;;;5005612;28;20328;-64
2021/01/16 02:55:34;;;;;;;37.10;17.08;;;-4.70;99.00;;;;;;5008589;28;20196;-63
2021/01/16 02:57:59;;;;;;;37.95;16.95;;;-4.70;99.00;;;;;;5008552;28;20215;-63
2021/01/16 03:00:25;;;;;;;39.80;18.30;;;-4.70;98.80;;;;;;5008945;28;20647;-64
2021/01/16 03:02:51;;;;;;;32.93;15.30;;;-4.70;98.70;;;;;;4997798;28;20208;-63
2021/01/16 03:05:20;;;;;;;35.50;15.47;;;-4.70;98.60;;;;;;5006239;28;20185;-64
2021/01/16 03:07:48;;;;;;;34.10;16.98;;;-4.70;98.70;;;;;;5004144;28;20190;-65
2021/01/16 03:10:15;;;;;;;35.70;17.35;;;-4.80;98.60;;;;;;5009646;28;20200;-64
2021/01/16 03:12:41;;;;;;;41.08;17.98;;;-4.70;98.80;;;;;;5008137;28;20212;-64
2021/01/16 03:15:15;;;;;;;32.20;15.50;;;-4.70;98.90;;;;;;5009915;28;20188;-64
2021/01/16 03:17:57;;;;;;;37.15;16.10;;;-4.70;98.90;;;;;;5014471;28;20182;-64
2021/01/16 03:20:30;;;;;;;44.45;16.80;;;-4.70;98.80;;;;;;5003364;28;20188;-63
2021/01/16 03:22:58;;;;;;;32.65;16.27;;;-4.70;98.80;;;;;;5007130;28;20209;-64
2021/01/16 03:25:26;;;;;;;33.67;14.95;;;-4.70;98.90;;;;;;5005936;28;20193;-64
2021/01/16 03:27:53;;;;;;;32.35;15.38;;;-4.70;98.90;;;;;;5005938;28;20188;-63
2021/01/16 03:30:19;;;;;;;34.47;16.08;;;-4.60;98.80;;;;;;5001384;28;20225;-63
2021/01/16 03:32:47;;;;;;;31.25;13.70;;;-4.60;98.60;;;;;;5010876;28;20691;-64
2021/01/16 03:35:16;;;;;;;33.65;15.18;;;-4.60;98.50;;;;;;5008591;28;20193;-64
2021/01/16 03:37:45;;;;;;;35.03;16.58;;;-4.60;98.40;;;;;;4995904;28;20264;-64
2021/01/16 03:40:12;;;;;;;34.55;16.00;;;-4.60;98.30;;;;;;5001129;28;20211;-62
2021/01/16 03:42:38;;;;;;;40.22;16.30;;;-4.70;98.30;;;;;;5011012;28;20216;-64
2021/01/16 03:45:10;;;;;;;32.65;15.05;;;-4.70;98.20;;;;;;5008659;28;20178;-64
2021/01/16 03:47:36;;;;;;;32.78;15.10;;;-4.70;98.30;;;;;;5003050;28;20216;-63
2021/01/16 03:50:04;;;;;;;37.27;16.60;;;-4.70;98.40;;;;;;5007196;28;20217;-64
2021/01/16 03:52:35;;;;;;;33.25;16.88;;;-4.80;98.50;;;;;;5008471;28;21079;-62
2021/01/16 03:55:01;;;;;;;30.35;14.43;;;-4.80;98.70;;;;;;5014968;28;20184;-64
2021/01/16 03:57:27;;;;;;;38.17;15.90;;;-4.80;98.80;;;;;;5010104;28;20714;-64
2021/01/16 03:59:54;;;;;;;38.13;16.73;;;-4.70;98.90;;;;;;5006360;28;20248;-64
2021/01/16 04:02:20;;;;;;;36.47;16.25;;;-4.70;98.90;;;;;;5011093;28;20438;-64
2021/01/16 04:04:47;;;;;;;39.75;16.17;;;-4.80;98.70;;;;;;5009374;28;20658;-64
2021/01/16 04:07:13;;;;;;;33.15;15.40;;;-4.70;98.70;;;;;;4999964;28;20194;-65
2021/01/16 04:09:40;;;;;;;40.00;16.50;;;-4.70;99.00;;;;;;5008133;28;20212;-64
2021/01/16 04:12:06;;;;;;;37.72;16.10;;;-4.70;99.00;;;;;;5018098;28;20189;-65
2021/01/16 04:14:32;;;;;;;38.83;17.13;;;-4.70;99.10;;;;;;5011312;28;20177;-64
2021/01/16 04:16:58;;;;;;;38.80;16.53;;;-4.60;99.20;;;;;;4991068;28;20281;-64
2021/01/16 04:19:23;;;;;;;42.33;18.30;;;-4.60;99.20;;;;;;5012241;28;20193;-64
2021/01/16 04:21:49;;;;;;;38.53;16.70;;;-4.60;99.30;;;;;;5007152;28;20680;-65
2021/01/16 04:24:15;;;;;;;36.00;16.20;;;-4.60;99.30;;;;;;5012789;28;20182;-64
2021/01/16 04:26:41;;;;;;;34.30;15.02;;;-4.50;99.40;;;;;;5009149;28;20187;-64
2021/01/16 04:29:07;;;;;;;41.07;15.50;;;-4.50;99.30;;;;;;5012571;28;20212;-64
2021/01/16 04:31:33;;;;;;;45.17;17.77;;;-4.50;99.50;;;;;;5015075;28;20326;-65
2021/01/16 04:33:59;;;;;;;35.22;15.85;;;-4.50;99.40;;;;;;5006913;28;20189;-65
2021/01/16 04:36:25;;;;;;;32.58;15.80;;;-4.50;99.50;;;;;;5008840;28;20165;-65
2021/01/16 04:38:51;;;;;;;44.60;15.50;;;-4.50;99.60;;;;;;5011944;28;20264;-64
2021/01/16 04:41:20;;;;;;;42.60;17.35;;;-4.40;99.50;;;;;;5009970;28;20566;-64
2021/01/16 04:43:48;;;;;;;42.90;16.40;;;-4.40;99.40;;;;;;5013350;28;20193;-63
2021/01/16 04:46:15;;;;;;;34.85;16.10;;;-4.40;99.20;;;;;;5013255;28;20189;-64
2021/01/16 04:48:47;;;;;;;40.83;17.48;;;-4.40;99.30;;;;;;5002276;28;20322;-64
2021/01/16 04:51:14;;;;;;;41.33;16.13;;;-4.40;99.20;;;;;;5008208;28;20275;-64
2021/01/16 04:53:41;;;;;;;38.33;16.00;;;-4.30;99.30;;;;;;5011813;28;20184;-64
2021/01/16 04:56:09;;;;;;;47.72;17.58;;;-4.30;99.30;;;;;;5010706;28;20174;-63
2021/01/16 04:58:37;;;;;;;44.67;16.58;;;-4.30;99.30;;;;;;5009859;28;20192;-64
2021/01/16 05:01:08;;;;;;;45.55;18.92;;;-4.40;99.40;;;;;;5002673;28;20281;-63
2021/01/16 05:03:36;;;;;;;41.33;16.50;;;-4.40;99.40;;;;;;5006187;28;20195;-64
2021/01/16 05:06:08;;;;;;;48.35;17.10;;;-4.40;99.50;;;;;;5009186;28;20241;-64
2021/01/16 05:08:39;;;;;;;44.63;17.50;;;-4.40;99.50;;;;;;5004977;28;20700;-67
2021/01/16 05:11:11;;;;;;;52.20;17.10;;;-4.40;99.70;;;;;;5011287;28;20191;-64
2021/01/16 05:13:45;;;;;;;50.22;19.13;;;-4.40;99.80;;;;;;5011358;28;20173;-63
2021/01/16 05:16:12;;;;;;;47.33;16.70;;;-4.30;99.80;;;;;;5015898;28;20180;-64
2021/01/16 05:18:46;;;;;;;48.83;16.50;;;-4.40;99.80;;;;;;5014638;28;20248;-64
2021/01/16 05:21:12;;;;;;;59.63;18.30;;;-4.40;99.90;;;;;;5006383;28;20207;-63
2021/01/16 05:23:42;;;;;;;50.80;18.70;;;-4.40;99.90;;;;;;5008799;28;20654;-64
2021/01/16 05:26:08;;;;;;;55.05;17.60;;;-4.40;99.90;;;;;;5006283;28;20443;-64
2021/01/16 05:28:34;;;;;;;62.58;18.83;;;-4.30;99.90;;;;;;5012706;28;20212;-63
2021/01/16 05:31:06;;;;;;;41.47;16.37;;;-4.30;99.90;;;;;;5016799;28;20189;-64
2021/01/16 05:33:37;;;;;;;53.22;18.40;;;-4.30;99.90;;;;;;5007631;28;20193;-64
2021/01/16 05:36:09;;;;;;;44.10;17.13;;;-4.40;99.90;;;;;;5006804;28;20275;-64
2021/01/16 05:38:42;;;;;;;43.90;17.42;;;-4.30;99.90;;;;;;5005204;28;20290;-64
2021/01/16 05:41:11;;;;;;;41.95;16.23;;;-4.30;99.90;;;;;;5009995;28;20192;-64
2021/01/16 05:43:38;;;;;;;40.90;17.08;;;-4.40;99.90;;;;;;5012790;28;20234;-64
2021/01/16 05:46:08;;;;;;;40.22;16.13;;;-4.40;99.90;;;;;;5013202;28;20741;-64
2021/01/16 05:48:38;;;;;;;41.60;17.48;;;-4.40;99.80;;;;;;5006569;28;20666;-63
2021/01/16 05:51:05;;;;;;;44.47;17.48;;;-4.40;99.90;;;;;;5003732;28;20331;-64
2021/01/16 05:53:31;;;;;;;38.75;17.13;;;-4.40;99.90;;;;;;5008174;28;20172;-64
2021/01/16 05:55:58;;;;;;;36.57;16.53;;;-4.40;99.90;;;;;;5011414;28;20185;-63
2021/01/16 05:58:35;;;;;;;36.00;16.50;;;-4.40;99.90;;;;;;5011776;28;20616;-63
2021/01/16 06:01:08;;;;;;;37.95;15.88;;;-4.40;99.90;;;;;;5013981;28;20200;-64
2021/01/16 06:03:36;;;;;;;35.05;16.08;;;-4.40;99.90;;;;;;5007235;28;20181;-64
2021/01/16 06:06:08;;;;;;;41.40;16.85;;;-4.40;99.90;;;;;;5006026;28;20243;-63
2021/01/16 06:08:47;;;;;;;39.60;15.98;;;-4.40;99.90;;;;;;5004704;28;20227;-64
2021/01/16 06:11:13;;;;;;;33.83;15.77;;;-4.40;99.90;;;;;;5007996;28;20244;-65
2021/01/16 06:13:41;;;;;;;36.47;15.53;;;-4.40;99.90;;;;;;5005842;28;20647;-65
2021/01/16 06:16:14;;;;;;;36.63;16.20;;;-4.40;99.90;;;;;;5007635;28;20976;-64
2021/01/16 06:18:45;;;;;;;41.35;16.63;;;-4.40;99.90;;;;;;5006359;28;20189;-64
2021/01/16 06:21:11;;;;;;;39.28;17.75;;;-4.40;99.80;;;;;;5007427;28;20188;-64
2021/01/16 06:23:43;;;;;;;37.27;15.70;;;-4.40;99.90;;;;;;5009648;28;20191;-65
2021/01/16 06:26:08;;;;;;;42.22;16.85;;;-4.40;99.90;;;;;;5012639;28;20557;-65
2021/01/16 06:28:57;;;;;;;30.90;15.90;;;-4.40;99.80;;;;;;5002319;28;20212;-64
2021/01/16 06:31:29;;;;;;;34.20;15.40;;;-4.40;99.80;;;;;;5021359;28;20197;-64
2021/01/16 06:34:00;;;;;;;38.40;16.15;;;-4.40;99.70;;;;;;5017223;28;20189;-63
2021/01/16 06:36:32;;;;;;;36.95;15.00;;;-4.40;99.80;;;;;;5003084;28;20205;-64
2021/01/16 06:39:05;;;;;;;34.75;16.70;;;-4.40;99.90;;;;;;5011094;28;20235;-64
2021/01/16 06:41:36;;;;;;;33.45;15.90;;;-4.40;99.90;;;;;;5008850;28;20220;-65
2021/01/16 06:44:02;;;;;;;41.47;17.48;;;-4.40;99.90;;;;;;5022143;28;20235;-64
2021/01/16 06:46:47;;;;;;;33.92;15.65;;;-4.40;99.90;;;;;;5012007;28;20177;-64
2021/01/16 06:49:20;;;;;;;44.10;16.45;;;-4.40;99.90;;;;;;5003056;28;20666;-63
2021/01/16 06:51:53;;;;;;;39.55;17.13;;;-4.40;99.90;;;;;;5009317;28;20670;-64
2021/01/16 06:54:27;;;;;;;41.40;16.75;;;-4.40;99.90;;;;;;5006057;28;20227;-64
2021/01/16 06:57:07;;;;;;;33.25;15.90;;;-4.40;99.90;;;;;;5010911;28;20177;-64
2021/01/16 06:59:34;;;;;;;40.92;15.27;;;-4.40;99.90;;;;;;5009445;28;20651;-64
2021/01/16 07:02:13;;;;;;;52.05;17.95;;;-4.40;99.90;;;;;;5011972;28;20225;-65
2021/01/16 07:04:49;;;;;;;48.65;17.45;;;-4.40;99.90;;;;;;5009893;28;20251;-64
2021/01/16 07:07:19;;;;;;;45.83;17.40;;;-4.40;99.90;;;;;;5005628;28;20713;-64
2021/01/16 07:09:46;;;;;;;39.90;16.55;;;-4.40;99.90;;;;;;5008238;28;20235;-65
2021/01/16 07:12:18;;;;;;;38.65;17.92;;;-4.40;99.90;;;;;;5006682;28;20215;-63
2021/01/16 07:14:43;;;;;;;41.78;17.45;;;-4.40;99.90;;;;;;5011063;28;20287;-64
2021/01/16 07:17:11;;;;;;;46.63;17.90;;;-4.40;99.90;;;;;;5012252;28;20276;-63
2021/01/16 07:19:37;;;;;;;43.20;17.52;;;-4.40;99.90;;;;;;5023950;28;20551;-63
2021/01/16 07:22:03;;;;;;;41.43;16.40;;;-4.40;99.90;;;;;;5004723;28;20350;-62
2021/01/16 07:24:29;;;;;;;45.00;16.90;;;-4.40;99.90;;;;;;5007435;28;20918;-63
2021/01/16 07:26:56;;;;;;;40.70;18.43;;;-4.30;99.90;;;;;;5017355;28;20240;-63
2021/01/16 07:29:22;;;;;;;41.83;17.83;;;-4.40;99.90;;;;;;5018171;28;20438;-62
2021/01/16 07:31:52;;;;;;;44.70;17.00;;;-4.30;99.90;;;;;;5032598;28;20208;-60
2021/01/16 07:34:18;;;;;;;52.20;17.42;;;-4.30;99.90;;;;;;5017534;28;20208;-61
2021/01/16 07:36:44;;;;;;;43.43;17.63;;;-4.40;99.90;;;;;;5011834;28;20208;-61
2021/01/16 07:39:14;;;;;;;45.83;18.33;;;-4.30;99.90;;;;;;5008339;28;20180;-61
2021/01/16 07:41:48;;;;;;;50.08;17.08;;;-4.30;99.90;;;;;;5011808;28;20282;-61
2021/01/16 07:44:21;;;;;;;44.42;16.98;;;-4.30;99.90;;;;;;5015675;28;20194;-61
2021/01/16 07:47:21;;;;;;;52.78;17.65;;;-4.20;99.90;;;;;;5015216;28;20217;-60
2021/01/16 07:49:53;;;;;;;42.78;17.65;;;-4.20;99.90;;;;;;5004241;28;20250;-61
2021/01/16 07:52:24;;;;;;;40.28;16.38;;;-4.20;99.90;;;;;;5004673;28;20208;-61
2021/01/16 07:55:09;;;;;;;44.80;17.85;;;-4.20;99.90;;;;;;5005981;28;20202;-64
2021/01/16 07:57:35;;;;;;;48.13;18.95;;;-4.10;99.90;;;;;;5012098;28;20185;-63
2021/01/16 08:00:09;;;;;;;43.80;17.07;;;-4.10;99.90;;;;;;5015798;28;20178;-62
2021/01/16 08:02:48;;;;;;;42.30;15.73;;;-4.10;99.90;;;;;;5006216;28;20188;-62
2021/01/16 08:05:24;;;;;;;51.22;18.23;;;-4.10;99.90;;;;;;5023081;28;20432;-63
2021/01/16 08:07:59;;;;;;;48.22;17.45;;;-4.00;99.90;;;;;;5031699;28;20200;-66
2021/01/16 08:10:25;;;;;;;48.83;18.35;;;-4.00;99.90;;;;;;5012801;28;20296;-62
2021/01/16 08:12:57;;;;;;;48.30;18.70;;;-4.00;99.90;;;;;;4997050;28;20202;-64
2021/01/16 08:15:29;;;;;;;61.05;20.55;;;-4.00;99.90;;;;;;4995575;28;20416;-62
2021/01/16 08:17:55;;;;;;;48.78;18.98;;;-4.00;99.90;;;;;;5009523;28;20673;-62
2021/01/16 08:20:27;;;;;;;52.30;20.15;;;-3.90;99.90;;;;;;5010247;28;20216;-62
2021/01/16 08:22:58;;;;;;;52.00;19.52;;;-3.80;99.90;;;;;;5004641;28;20289;-61
2021/01/16 08:25:28;;;;;;;45.67;19.00;;;-3.80;99.90;;;;;;5004800;28;20192;-65
2021/01/16 08:27:56;;;;;;;42.23;18.57;;;-3.80;99.90;;;;;;5001221;28;20484;-63
2021/01/16 08:30:33;;;;;;;47.92;19.80;;;-3.80;99.90;;;;;;5002993;28;20458;-62
2021/01/16 08:33:07;;;;;;;49.58;19.35;;;-3.80;99.40;;;;;;5002748;28;20259;-63
2021/01/16 08:35:47;;;;;;;48.67;18.07;;;-3.80;99.50;;;;;;4999105;28;20846;-62
2021/01/16 08:38:19;;;;;;;43.30;19.53;;;-3.80;99.20;;;;;;4998509;28;21118;-61
2021/01/16 08:41:03;;;;;;;42.53;18.42;;;-3.80;99.00;;;;;;5001794;28;20463;-63
2021/01/16 08:43:39;;;;;;;44.67;18.25;;;-3.80;99.10;;;;;;5007805;28;20189;-62
2021/01/16 08:46:12;;;;;;;45.23;19.37;;;-3.80;99.30;;;;;;5004414;28;20176;-64
2021/01/16 08:48:40;;;;;;;56.00;20.70;;;-3.80;99.30;;;;;;4998831;28;20456;-64
2021/01/16 08:51:40;;;;;;;48.17;21.35;;;-3.70;99.40;;;;;;4997988;28;20181;-63
2021/01/16 08:54:25;;;;;;;49.30;21.53;;;-3.70;99.20;;;;;;4983072;28;21120;-64
2021/01/16 08:56:54;;;;;;;54.70;20.20;;;-3.70;99.30;;;;;;4998451;28;20434;-63
2021/01/16 08:59:30;;;;;;;51.80;21.80;;;-3.60;99.10;;;;;;5030154;22;20851;-62
2021/01/16 09:02:07;;;;;;;47.85;20.58;;;-3.60;99.30;;;;;;4988769;28;20431;-61
2021/01/16 09:04:35;;;;;;;55.43;21.40;;;-3.60;99.10;;;;;;4984614;28;20729;-61
2021/01/16 09:07:23;;;;;;;57.78;19.33;;;-3.50;99.20;;;;;;4978336;28;20938;-61
2021/01/16 09:10:00;;;;;;;55.40;20.20;;;-3.40;98.80;;;;;;5008837;28;20221;-61
2021/01/16 09:12:32;;;;;;;55.17;20.80;;;-3.40;98.50;;;;;;4988290;28;20417;-59
2021/01/16 09:15:21;;;;;;;54.92;21.15;;;-3.40;98.50;;;;;;4995144;28;20181;-66
2021/01/16 09:18:06;;;;;;;53.03;21.70;;;-3.40;98.90;;;;;;5006457;28;20201;-62
2021/01/16 09:20:34;;;;;;;52.13;21.10;;;-3.40;98.90;;;;;;5008331;28;20526;-60
2021/01/16 09:23:19;;;;;;;60.17;22.80;;;-3.30;99.20;;;;;;5000751;28;20461;-60
2021/01/16 09:25:58;;;;;;;61.03;22.27;;;-3.20;99.20;;;;;;4996031;28;20447;-66
2021/01/16 09:28:44;;;;;;;55.35;23.05;;;-3.10;99.20;;;;;;5008868;28;20463;-65
2021/01/16 09:31:25;;;;;;;51.33;22.30;;;-3.00;99.00;;;;;;5003341;28;20198;-67
2021/01/16 09:34:17;;;;;;;52.40;23.40;;;-3.00;98.90;;;;;;4994278;28;20448;-59
2021/01/16 09:36:43;;;;;;;57.70;21.77;;;-2.90;98.80;;;;;;4987329;28;20436;-57
2021/01/16 09:39:21;;;;;;;52.30;21.00;;;-2.90;98.70;;;;;;4983821;28;20421;-65
2021/01/16 09:41:48;;;;;;;51.40;21.63;;;-2.80;98.50;;;;;;4988894;28;20544;-62
2021/01/16 09:44:14;;;;;;;76.73;23.83;;;-2.80;98.40;;;;;;4984673;28;20539;-60
2021/01/16 09:46:42;;;;;;;60.67;22.80;;;-2.80;98.30;;;;;;4984766;28;20948;-59
2021/01/16 09:49:10;;;;;;;67.37;24.17;;;-2.70;98.50;;;;;;4990804;28;20439;-58
2021/01/16 09:51:37;;;;;;;56.30;23.87;;;-2.70;98.20;;;;;;4984802;28;20446;-62
2021/01/16 09:54:16;;;;;;;60.63;24.50;;;-2.60;98.20;;;;;;4984339;28;20527;-58
2021/01/16 09:56:46;;;;;;;62.30;23.60;;;-2.50;98.30;;;;;;4982278;28;20820;-59
2021/01/16 09:59:24;;;;;;;56.97;22.13;;;-2.40;98.40;;;;;;4978688;28;21135;-60
2021/01/16 10:02:10;;;;;;;64.63;24.23;;;-2.20;98.30;;;;;;4980148;28;20532;-56
2021/01/16 10:04:45;;;;;;;51.10;22.03;;;-2.10;97.60;;;;;;4974429;28;20433;-60
2021/01/16 10:07:15;;;;;;;56.97;22.57;;;-2.10;97.00;;;;;;4980614;28;20436;-59
2021/01/16 10:09:44;;;;;;;60.73;23.23;;;-2.20;96.70;;;;;;4981004;28;20470;-58
2021/01/16 10:12:32;;;;;;;58.70;24.43;;;-2.20;96.80;;;;;;4982109;28;20436;-59
2021/01/16 10:15:03;;;;;;;56.17;24.27;;;-2.10;97.20;;;;;;4979145;28;20433;-59
2021/01/16 10:17:38;;;;;;;56.20;22.83;;;-2.10;97.30;;;;;;4991903;28;20443;-58
2021/01/16 10:20:04;;;;;;;47.63;21.23;;;-2.00;97.60;;;;;;4985548;28;20801;-59
2021/01/16 10:22:30;;;;;;;62.33;22.60;;;-1.90;97.60;;;;;;4983633;28;21548;-59
2021/01/16 10:24:59;;;;;;;57.63;21.77;;;-1.90;97.00;;;;;;4988003;28;20526;-59
2021/01/16 10:27:47;;;;;;;53.33;18.30;;;-1.80;97.20;;;;;;4990656;28;20437;-62
2021/01/16 10:30:20;;;;;;;44.80;17.50;;;-1.80;97.50;;;;;;4972659;28;20472;-61
2021/01/16 10:32:50;;;;;;;47.73;16.97;;;-1.70;98.00;;;;;;4981926;28;20437;-60
2021/01/16 10:35:21;;;;;;;33.50;13.83;;;-1.60;98.00;;;;;;4978740;28;20434;-61
2021/01/16 10:37:48;;;;;;;33.63;14.23;;;-1.50;98.00;;;;;;4987888;28;20510;-59
2021/01/16 10:40:14;;;;;;;24.93;11.50;;;-1.30;97.80;;;;;;4974927;28;20465;-59
2021/01/16 10:42:46;;;;;;;22.63;10.30;;;-1.20;97.30;;;;;;4979061;28;20441;-59
2021/01/16 10:45:13;;;;;;;24.27;10.50;;;-1.20;97.10;;;;;;4979932;28;20953;-57
2021/01/16 10:47:42;;;;;;;18.67;9.70;;;-1.20;96.60;;;;;;4984945;28;20427;-58
2021/01/16 10:50:11;;;;;;;23.07;9.83;;;-1.20;96.40;;;;;;4979813;28;20469;-59
2021/01/16 10:52:37;;;;;;;27.07;10.80;;;-1.30;96.20;;;;;;4985191;28;20934;-61
2021/01/16 10:55:11;;;;;;;24.53;11.33;;;-1.30;96.50;;;;;;4986046;28;20460;-58
2021/01/16 10:57:44;;;;;;;18.67;9.83;;;-1.30;96.90;;;;;;4977213;28;20429;-58
2021/01/16 11:00:14;;;;;;;25.40;10.60;;;-1.20;97.10;;;;;;4980857;28;20459;-61
2021/01/16 11:02:42;;;;;;;24.63;11.53;;;-1.10;97.00;;;;;;4977631;28;20426;-58
2021/01/16 11:05:23;;;;;;;28.33;10.63;;;-1.10;96.70;;;;;;4977808;28;20432;-58
2021/01/16 11:07:51;;;;;;;23.27;10.70;;;-1.00;96.80;;;;;;4983481;28;20870;-60
2021/01/16 11:10:31;;;;;;;26.93;11.07;;;-0.90;96.80;;;;;;4984717;28;20475;-59
2021/01/16 11:13:27;;;;;;;23.70;10.43;;;-0.80;96.50;;;;;;4980021;28;20521;-60
2021/01/16 11:16:13;;;;;;;21.90;10.47;;;-0.80;96.40;;;;;;4988130;28;20521;-61
2021/01/16 11:18:41;;;;;;;24.67;9.50;;;-0.80;96.40;;;;;;4989498;28;20458;-58
2021/01/16 11:21:09;;;;;;;22.87;10.43;;;-0.80;95.90;;;;;;4987790;28;20449;-58
2021/01/16 11:23:38;;;;;;;22.90;9.97;;;-0.90;96.10;;;;;;4983539;28;20426;-58
2021/01/16 11:26:10;;;;;;;24.50;9.30;;;-0.90;96.50;;;;;;4980939;28;20479;-59
2021/01/16 11:28:55;;;;;;;19.73;9.77;;;-0.90;95.90;;;;;;4983308;28;20443;-61
2021/01/16 11:31:34;;;;;;;21.90;11.30;;;-0.90;96.10;;;;;;4977931;28;20455;-61
2021/01/16 11:34:09;;;;;;;20.10;8.70;;;-1.00;96.20;;;;;;4980872;28;20445;-59
2021/01/16 11:36:55;;;;;;;17.07;8.60;;;-0.90;96.30;;;;;;4978307;28;20432;-63
2021/01/16 11:39:44;;;;;;;17.50;8.47;;;-0.70;96.50;;;;;;4978685;28;20443;-59
2021/01/16 11:42:11;;;;;;;16.37;8.70;;;-0.50;95.70;;;;;;4977342;28;20447;-58
2021/01/16 11:44:59;;;;;;;13.87;8.00;;;-0.50;94.40;;;;;;4979270;28;20447;-60
2021/01/16 11:47:27;;;;;;;15.07;8.63;;;-0.50;94.90;;;;;;4975772;28;20507;-59
2021/01/16 11:49:54;;;;;;;25.70;9.97;;;-0.50;94.50;;;;;;4978121;28;20471;-59
2021/01/16 11:52:20;;;;;;;16.30;8.60;;;-0.50;94.10;;;;;;4975417;28;20504;-58
2021/01/16 11:54:48;;;;;;;19.60;8.53;;;-0.60;94.00;;;;;;4970037;28;20840;-61
2021/01/16 11:57:18;;;;;;;22.87;8.97;;;-0.70;94.50;;;;;;4970722;28;21038;-61
2021/01/16 11:59:47;;;;;;;18.67;8.17;;;-0.70;94.70;;;;;;4973622;28;20468;-62
2021/01/16 12:02:19;;;;;;;17.30;9.23;;;-0.70;95.30;;;;;;4978634;28;20445;-62
2021/01/16 12:04:46;;;;;;;24.60;10.90;;;-0.70;95.40;;;;;;4987037;28;20823;-60
2021/01/16 12:07:13;;;;;;;20.77;9.70;;;-0.60;95.00;;;;;;4973636;28;20480;-62
2021/01/16 12:09:42;;;;;;;18.70;8.73;;;-0.70;93.80;;;;;;4992119;28;20555;-66
2021/01/16 12:12:13;;;;;;;16.90;8.80;;;-0.80;94.30;;;;;;4997142;28;20434;-63
2021/01/16 12:14:40;;;;;;;18.40;9.30;;;-0.80;94.30;;;;;;4990954;28;20471;-62
2021/01/16 12:17:15;;;;;;;17.93;8.87;;;-0.90;94.40;;;;;;4994356;28;20552;-58
2021/01/16 12:19:41;;;;;;;16.77;8.50;;;-0.90;94.20;;;;;;4979942;28;20452;-60
2021/01/16 12:22:09;;;;;;;18.40;9.33;;;-1.00;94.30;;;;;;4976432;28;20458;-60
2021/01/16 12:24:36;;;;;;;15.50;8.93;;;-1.10;94.50;;;;;;4970159;28;20439;-60
2021/01/16 12:27:04;;;;;;;15.50;9.23;;;-1.10;95.00;;;;;;4977572;28;21072;-56
2021/01/16 12:29:44;;;;;;;25.57;10.50;;;-1.10;94.80;;;;;;4984838;28;20533;-55
2021/01/16 12:32:11;;;;;;;20.70;10.10;;;-1.20;94.80;;;;;;4996601;28;20433;-57
2021/01/16 12:34:53;;;;;;;23.13;10.50;;;-1.20;94.60;;;;;;4983088;28;22056;-65
2021/01/16 12:37:39;;;;;;;19.40;9.40;;;-1.20;94.40;;;;;;4982780;28;20445;-57
2021/01/16 12:40:16;;;;;;;20.83;11.30;;;-1.20;94.60;;;;;;4978337;28;20758;-58
2021/01/16 12:42:44;;;;;;;22.13;9.90;;;-1.20;94.70;;;;;;4984214;28;20441;-57
2021/01/16 12:45:20;;;;;;;21.47;9.87;;;-1.30;94.30;;;;;;4983975;28;20480;-57
2021/01/16 12:47:55;;;;;;;37.37;14.33;;;-1.30;94.40;;;;;;4981230;28;20432;-58